sensor_id;sensor_type;location;lat;lon;timestamp;P1;durP1;ratioP1;P2;durP2;ratioP2
4148;SDS011;2088;51.032;7.082;2023-11-21T00:00:12;8.83;;;3.77;;
4148;SDS011;2088;51.032;7.082;2023-11-21T00:02:40;6.50;;;3.30;;
4148;SDS011;2088;51.032;7.082;2023-11-21T00:05:07;4.53;;;3.27;;
4148;SDS011;2088;51.032;7.082;2023-11-21T00:07:36;6.63;;;4.23;;
4148;SDS011;2088;51.032;7.082;2023-11-21T00:10:03;5.07;;;3.43;;
4148;SDS011;2088;51.032;7.082;2023-11-21T00:12:31;9.43;;;3.30;;
4148;SDS011;2088;51.032;7.082;2023-11-21T00:14:58;5.73;;;3.90;;
4148;SDS011;2088;51.032;7.082;2023-11-21T00:17:26;10.73;;;3.37;;
4148;SDS011;2088;51.032;7.082;2023-11-21T00:19:53;5.30;;;3.30;;
4148;SDS011;2088;51.032;7.082;2023-11-21T00:22:20;5.77;;;3.50;;
4148;SDS011;2088;51.032;7.082;2023-11-21T00:24:48;11.27;;;3.23;;
4148;SDS011;2088;51.032;7.082;2023-11-21T00:27:15;7.50;;;3.73;;
4148;SDS011;2088;51.032;7.082;2023-11-21T00:29:43;8.20;;;3.50;;
4148;SDS011;2088;51.032;7.082;2023-11-21T00:32:10;4.63;;;3.20;;
4148;SDS011;2088;51.032;7.082;2023-11-21T00:34:37;10.20;;;3.87;;
4148;SDS011;2088;51.032;7.082;2023-11-21T00:37:05;6.07;;;3.53;;
4148;SDS011;2088;51.032;7.082;2023-11-21T00:39:32;8.23;;;3.80;;
4148;SDS011;2088;51.032;7.082;2023-11-21T00:42:01;6.70;;;3.93;;
4148;SDS011;2088;51.032;7.082;2023-11-21T00:44:29;4.17;;;3.03;;
4148;SDS011;2088;51.032;7.082;2023-11-21T00:46:56;9.13;;;3.23;;
4148;SDS011;2088;51.032;7.082;2023-11-21T00:49:23;19.63;;;3.70;;
4148;SDS011;2088;51.032;7.082;2023-11-21T00:51:50;8.10;;;3.50;;
4148;SDS011;2088;51.032;7.082;2023-11-21T00:54:18;4.57;;;3.30;;
4148;SDS011;2088;51.032;7.082;2023-11-21T00:56:45;5.60;;;2.87;;
4148;SDS011;2088;51.032;7.082;2023-11-21T00:59:13;6.00;;;3.70;;
4148;SDS011;2088;51.032;7.082;2023-11-21T01:01:40;7.70;;;4.10;;
4148;SDS011;2088;51.032;7.082;2023-11-21T01:04:07;4.90;;;3.30;;
4148;SDS011;2088;51.032;7.082;2023-11-21T01:06:35;4.30;;;3.50;;
4148;SDS011;2088;51.032;7.082;2023-11-21T01:09:02;6.53;;;3.87;;
4148;SDS011;2088;51.032;7.082;2023-11-21T01:11:33;6.70;;;3.20;;
4148;SDS011;2088;51.032;7.082;2023-11-21T01:14:01;13.57;;;4.17;;
4148;SDS011;2088;51.032;7.082;2023-11-21T01:16:30;8.47;;;4.90;;
4148;SDS011;2088;51.032;7.082;2023-11-21T01:18:58;5.03;;;3.27;;
4148;SDS011;2088;51.032;7.082;2023-11-21T01:21:25;4.50;;;3.27;;
4148;SDS011;2088;51.032;7.082;2023-11-21T01:23:53;10.67;;;3.90;;
4148;SDS011;2088;51.032;7.082;2023-11-21T01:26:20;9.63;;;3.40;;
4148;SDS011;2088;51.032;7.082;2023-11-21T01:28:47;14.83;;;4.50;;
4148;SDS011;2088;51.032;7.082;2023-11-21T01:31:14;12.13;;;3.50;;
4148;SDS011;2088;51.032;7.082;2023-11-21T01:33:42;5.40;;;3.27;;
4148;SDS011;2088;51.032;7.082;2023-11-21T01:36:10;8.30;;;3.73;;
4148;SDS011;2088;51.032;7.082;2023-11-21T01:38:37;7.20;;;3.23;;
4148;SDS011;2088;51.032;7.082;2023-11-21T01:41:04;8.40;;;3.60;;
4148;SDS011;2088;51.032;7.082;2023-11-21T01:43:31;7.70;;;4.10;;
4148;SDS011;2088;51.032;7.082;2023-11-21T01:45:59;6.30;;;3.00;;
4148;SDS011;2088;51.032;7.082;2023-11-21T01:48:26;8.27;;;3.30;;
4148;SDS011;2088;51.032;7.082;2023-11-21T01:50:55;5.63;;;2.90;;
4148;SDS011;2088;51.032;7.082;2023-11-21T01:53:23;4.00;;;2.93;;
4148;SDS011;2088;51.032;7.082;2023-11-21T01:55:51;6.47;;;3.53;;
4148;SDS011;2088;51.032;7.082;2023-11-21T01:58:18;5.00;;;3.27;;
4148;SDS011;2088;51.032;7.082;2023-11-21T02:00:46;8.93;;;3.43;;
4148;SDS011;2088;51.032;7.082;2023-11-21T02:03:15;6.07;;;3.77;;
4148;SDS011;2088;51.032;7.082;2023-11-21T02:05:42;6.13;;;3.67;;
4148;SDS011;2088;51.032;7.082;2023-11-21T02:08:11;9.30;;;4.57;;
4148;SDS011;2088;51.032;7.082;2023-11-21T02:10:38;14.43;;;3.30;;
4148;SDS011;2088;51.032;7.082;2023-11-21T02:13:05;8.20;;;3.60;;
4148;SDS011;2088;51.032;7.082;2023-11-21T02:15:32;9.43;;;3.23;;
4148;SDS011;2088;51.032;7.082;2023-11-21T02:18:00;5.47;;;3.80;;
4148;SDS011;2088;51.032;7.082;2023-11-21T02:20:28;6.97;;;4.20;;
4148;SDS011;2088;51.032;7.082;2023-11-21T02:22:57;9.03;;;3.70;;
4148;SDS011;2088;51.032;7.082;2023-11-21T02:25:24;8.73;;;4.70;;
4148;SDS011;2088;51.032;7.082;2023-11-21T02:27:52;7.93;;;3.60;;
4148;SDS011;2088;51.032;7.082;2023-11-21T02:30:20;10.57;;;4.90;;
4148;SDS011;2088;51.032;7.082;2023-11-21T02:32:47;5.53;;;4.00;;
4148;SDS011;2088;51.032;7.082;2023-11-21T02:35:14;7.70;;;3.37;;
4148;SDS011;2088;51.032;7.082;2023-11-21T02:37:41;15.03;;;4.10;;
4148;SDS011;2088;51.032;7.082;2023-11-21T02:40:10;5.90;;;3.17;;
4148;SDS011;2088;51.032;7.082;2023-11-21T02:42:38;7.87;;;2.83;;
4148;SDS011;2088;51.032;7.082;2023-11-21T02:45:06;7.43;;;4.97;;
4148;SDS011;2088;51.032;7.082;2023-11-21T02:47:33;9.60;;;3.47;;
4148;SDS011;2088;51.032;7.082;2023-11-21T02:50:00;9.80;;;5.47;;
4148;SDS011;2088;51.032;7.082;2023-11-21T02:52:27;8.57;;;4.33;;
4148;SDS011;2088;51.032;7.082;2023-11-21T02:54:54;8.53;;;3.93;;
4148;SDS011;2088;51.032;7.082;2023-11-21T02:57:22;5.90;;;3.83;;
4148;SDS011;2088;51.032;7.082;2023-11-21T02:59:50;9.00;;;3.67;;
4148;SDS011;2088;51.032;7.082;2023-11-21T03:02:17;6.10;;;3.60;;
4148;SDS011;2088;51.032;7.082;2023-11-21T03:04:44;17.63;;;4.63;;
4148;SDS011;2088;51.032;7.082;2023-11-21T03:07:13;10.10;;;4.80;;
4148;SDS011;2088;51.032;7.082;2023-11-21T03:09:40;8.40;;;3.97;;
4148;SDS011;2088;51.032;7.082;2023-11-21T03:12:07;10.27;;;4.40;;
4148;SDS011;2088;51.032;7.082;2023-11-21T03:14:36;8.67;;;4.20;;
4148;SDS011;2088;51.032;7.082;2023-11-21T03:17:03;11.23;;;4.20;;
4148;SDS011;2088;51.032;7.082;2023-11-21T03:19:31;14.87;;;3.97;;
4148;SDS011;2088;51.032;7.082;2023-11-21T03:21:58;8.23;;;3.50;;
4148;SDS011;2088;51.032;7.082;2023-11-21T03:24:25;4.13;;;3.57;;
4148;SDS011;2088;51.032;7.082;2023-11-21T03:26:52;6.70;;;3.07;;
4148;SDS011;2088;51.032;7.082;2023-11-21T03:29:19;17.00;;;3.17;;
4148;SDS011;2088;51.032;7.082;2023-11-21T03:31:48;10.70;;;5.00;;
4148;SDS011;2088;51.032;7.082;2023-11-21T03:34:16;17.93;;;4.87;;
4148;SDS011;2088;51.032;7.082;2023-11-21T03:36:43;11.07;;;4.97;;
4148;SDS011;2088;51.032;7.082;2023-11-21T03:39:11;8.97;;;4.00;;
4148;SDS011;2088;51.032;7.082;2023-11-21T03:41:38;12.17;;;4.80;;
4148;SDS011;2088;51.032;7.082;2023-11-21T03:44:05;12.97;;;4.67;;
4148;SDS011;2088;51.032;7.082;2023-11-21T03:46:32;15.03;;;5.57;;
4148;SDS011;2088;51.032;7.082;2023-11-21T03:49:01;13.27;;;4.30;;
4148;SDS011;2088;51.032;7.082;2023-11-21T03:51:28;18.33;;;4.60;;
4148;SDS011;2088;51.032;7.082;2023-11-21T03:53:55;14.37;;;4.80;;
4148;SDS011;2088;51.032;7.082;2023-11-21T03:56:22;9.90;;;4.87;;
4148;SDS011;2088;51.032;7.082;2023-11-21T03:58:49;28.87;;;4.67;;
4148;SDS011;2088;51.032;7.082;2023-11-21T04:01:20;13.27;;;4.70;;
4148;SDS011;2088;51.032;7.082;2023-11-21T04:03:47;9.27;;;4.10;;
4148;SDS011;2088;51.032;7.082;2023-11-21T04:06:16;7.63;;;4.63;;
4148;SDS011;2088;51.032;7.082;2023-11-21T04:08:43;8.70;;;4.17;;
4148;SDS011;2088;51.032;7.082;2023-11-21T04:11:10;10.93;;;4.70;;
4148;SDS011;2088;51.032;7.082;2023-11-21T04:13:38;13.10;;;4.53;;
4148;SDS011;2088;51.032;7.082;2023-11-21T04:16:05;14.93;;;6.03;;
4148;SDS011;2088;51.032;7.082;2023-11-21T04:18:33;15.07;;;6.00;;
4148;SDS011;2088;51.032;7.082;2023-11-21T04:21:00;5.60;;;4.00;;
4148;SDS011;2088;51.032;7.082;2023-11-21T04:23:29;12.43;;;3.93;;
4148;SDS011;2088;51.032;7.082;2023-11-21T04:25:57;7.47;;;4.43;;
4148;SDS011;2088;51.032;7.082;2023-11-21T04:28:24;6.03;;;3.57;;
4148;SDS011;2088;51.032;7.082;2023-11-21T04:30:51;8.63;;;4.47;;
4148;SDS011;2088;51.032;7.082;2023-11-21T04:33:18;5.67;;;3.50;;
4148;SDS011;2088;51.032;7.082;2023-11-21T04:35:46;7.90;;;3.53;;
4148;SDS011;2088;51.032;7.082;2023-11-21T04:38:13;7.77;;;4.07;;
4148;SDS011;2088;51.032;7.082;2023-11-21T04:40:42;6.00;;;4.10;;
4148;SDS011;2088;51.032;7.082;2023-11-21T04:43:09;12.93;;;4.83;;
4148;SDS011;2088;51.032;7.082;2023-11-21T04:45:36;9.23;;;5.37;;
4148;SDS011;2088;51.032;7.082;2023-11-21T04:48:03;19.53;;;7.07;;
4148;SDS011;2088;51.032;7.082;2023-11-21T04:50:31;15.23;;;5.80;;
4148;SDS011;2088;51.032;7.082;2023-11-21T04:52:58;13.03;;;5.80;;
4148;SDS011;2088;51.032;7.082;2023-11-21T04:55:25;9.87;;;5.13;;
4148;SDS011;2088;51.032;7.082;2023-11-21T04:57:54;20.03;;;7.63;;
4148;SDS011;2088;51.032;7.082;2023-11-21T05:00:21;32.63;;;12.40;;
4148;SDS011;2088;51.032;7.082;2023-11-21T05:02:49;13.70;;;6.10;;
4148;SDS011;2088;51.032;7.082;2023-11-21T05:05:16;8.90;;;4.80;;
4148;SDS011;2088;51.032;7.082;2023-11-21T05:07:43;7.77;;;4.23;;
4148;SDS011;2088;51.032;7.082;2023-11-21T05:10:10;11.43;;;4.53;;
4148;SDS011;2088;51.032;7.082;2023-11-21T05:12:39;7.83;;;4.60;;
4148;SDS011;2088;51.032;7.082;2023-11-21T05:15:08;9.90;;;5.17;;
4148;SDS011;2088;51.032;7.082;2023-11-21T05:17:36;10.60;;;4.60;;
4148;SDS011;2088;51.032;7.082;2023-11-21T05:20:04;8.93;;;4.10;;
4148;SDS011;2088;51.032;7.082;2023-11-21T05:22:33;13.27;;;5.87;;
4148;SDS011;2088;51.032;7.082;2023-11-21T05:25:01;9.23;;;4.10;;
4148;SDS011;2088;51.032;7.082;2023-11-21T05:27:28;6.80;;;4.13;;
4148;SDS011;2088;51.032;7.082;2023-11-21T05:29:56;23.13;;;4.13;;
4148;SDS011;2088;51.032;7.082;2023-11-21T05:32:24;8.13;;;4.93;;
4148;SDS011;2088;51.032;7.082;2023-11-21T05:34:52;7.80;;;3.90;;
4148;SDS011;2088;51.032;7.082;2023-11-21T05:37:19;7.30;;;4.00;;
4148;SDS011;2088;51.032;7.082;2023-11-21T05:39:46;5.80;;;3.83;;
4148;SDS011;2088;51.032;7.082;2023-11-21T05:42:13;7.50;;;3.73;;
4148;SDS011;2088;51.032;7.082;2023-11-21T05:44:41;12.30;;;6.17;;
4148;SDS011;2088;51.032;7.082;2023-11-21T05:47:09;15.90;;;6.70;;
4148;SDS011;2088;51.032;7.082;2023-11-21T05:49:37;14.47;;;6.27;;
4148;SDS011;2088;51.032;7.082;2023-11-21T05:52:04;10.47;;;4.97;;
4148;SDS011;2088;51.032;7.082;2023-11-21T05:54:31;14.53;;;4.30;;
4148;SDS011;2088;51.032;7.082;2023-11-21T05:56:59;9.60;;;5.10;;
4148;SDS011;2088;51.032;7.082;2023-11-21T05:59:26;14.10;;;6.17;;
4148;SDS011;2088;51.032;7.082;2023-11-21T06:01:53;12.80;;;4.60;;
4148;SDS011;2088;51.032;7.082;2023-11-21T06:04:20;10.40;;;4.40;;
4148;SDS011;2088;51.032;7.082;2023-11-21T06:06:51;15.57;;;7.63;;
4148;SDS011;2088;51.032;7.082;2023-11-21T06:09:18;10.03;;;5.07;;
4148;SDS011;2088;51.032;7.082;2023-11-21T06:11:46;8.07;;;3.90;;
4148;SDS011;2088;51.032;7.082;2023-11-21T06:14:13;7.27;;;4.13;;
4148;SDS011;2088;51.032;7.082;2023-11-21T06:16:43;13.17;;;6.77;;
4148;SDS011;2088;51.032;7.082;2023-11-21T06:19:10;9.10;;;5.17;;
4148;SDS011;2088;51.032;7.082;2023-11-21T06:21:37;17.13;;;6.17;;
4148;SDS011;2088;51.032;7.082;2023-11-21T06:24:07;11.80;;;5.80;;
4148;SDS011;2088;51.032;7.082;2023-11-21T06:26:34;12.30;;;5.60;;
4148;SDS011;2088;51.032;7.082;2023-11-21T06:29:01;12.90;;;5.17;;
4148;SDS011;2088;51.032;7.082;2023-11-21T06:31:28;12.27;;;5.57;;
4148;SDS011;2088;51.032;7.082;2023-11-21T06:33:57;14.93;;;6.57;;
4148;SDS011;2088;51.032;7.082;2023-11-21T06:36:25;13.97;;;6.40;;
4148;SDS011;2088;51.032;7.082;2023-11-21T06:38:52;12.23;;;6.63;;
4148;SDS011;2088;51.032;7.082;2023-11-21T06:41:21;12.27;;;5.70;;
4148;SDS011;2088;51.032;7.082;2023-11-21T06:43:48;15.70;;;6.60;;
4148;SDS011;2088;51.032;7.082;2023-11-21T06:46:15;14.90;;;7.10;;
4148;SDS011;2088;51.032;7.082;2023-11-21T06:48:44;11.10;;;4.37;;
4148;SDS011;2088;51.032;7.082;2023-11-21T06:51:11;10.80;;;5.50;;
4148;SDS011;2088;51.032;7.082;2023-11-21T06:53:38;14.00;;;6.47;;
4148;SDS011;2088;51.032;7.082;2023-11-21T06:56:14;15.23;;;6.00;;
4148;SDS011;2088;51.032;7.082;2023-11-21T06:58:43;15.83;;;6.17;;
4148;SDS011;2088;51.032;7.082;2023-11-21T07:01:11;11.87;;;5.07;;
4148;SDS011;2088;51.032;7.082;2023-11-21T07:03:38;12.17;;;5.13;;
4148;SDS011;2088;51.032;7.082;2023-11-21T07:06:06;15.93;;;5.97;;
4148;SDS011;2088;51.032;7.082;2023-11-21T07:08:33;13.20;;;5.70;;
4148;SDS011;2088;51.032;7.082;2023-11-21T07:11:00;9.93;;;4.97;;
4148;SDS011;2088;51.032;7.082;2023-11-21T07:13:28;14.17;;;6.60;;
4148;SDS011;2088;51.032;7.082;2023-11-21T07:15:57;14.90;;;4.90;;
4148;SDS011;2088;51.032;7.082;2023-11-21T07:18:24;13.30;;;5.50;;
4148;SDS011;2088;51.032;7.082;2023-11-21T07:20:51;7.60;;;4.50;;
4148;SDS011;2088;51.032;7.082;2023-11-21T07:23:18;13.23;;;5.73;;
4148;SDS011;2088;51.032;7.082;2023-11-21T07:25:47;14.60;;;6.47;;
4148;SDS011;2088;51.032;7.082;2023-11-21T07:28:14;17.83;;;5.60;;
4148;SDS011;2088;51.032;7.082;2023-11-21T07:30:41;13.43;;;5.03;;
4148;SDS011;2088;51.032;7.082;2023-11-21T07:33:10;13.07;;;5.93;;
4148;SDS011;2088;51.032;7.082;2023-11-21T07:35:37;18.10;;;6.70;;
4148;SDS011;2088;51.032;7.082;2023-11-21T07:38:04;14.93;;;7.47;;
4148;SDS011;2088;51.032;7.082;2023-11-21T07:40:31;12.90;;;6.43;;
4148;SDS011;2088;51.032;7.082;2023-11-21T07:42:58;12.63;;;7.30;;
4148;SDS011;2088;51.032;7.082;2023-11-21T07:45:25;11.57;;;5.60;;
4148;SDS011;2088;51.032;7.082;2023-11-21T07:47:53;12.37;;;6.40;;
4148;SDS011;2088;51.032;7.082;2023-11-21T07:50:22;12.80;;;6.80;;
4148;SDS011;2088;51.032;7.082;2023-11-21T07:52:49;16.67;;;5.20;;
4148;SDS011;2088;51.032;7.082;2023-11-21T07:55:16;18.17;;;7.10;;
4148;SDS011;2088;51.032;7.082;2023-11-21T07:57:43;14.30;;;7.80;;
4148;SDS011;2088;51.032;7.082;2023-11-21T08:00:11;15.83;;;7.00;;
4148;SDS011;2088;51.032;7.082;2023-11-21T08:02:40;27.30;;;7.80;;
4148;SDS011;2088;51.032;7.082;2023-11-21T08:05:08;23.70;;;8.13;;
4148;SDS011;2088;51.032;7.082;2023-11-21T08:07:37;18.93;;;8.50;;
4148;SDS011;2088;51.032;7.082;2023-11-21T08:10:04;25.57;;;9.57;;
4148;SDS011;2088;51.032;7.082;2023-11-21T08:12:35;34.47;;;11.43;;
4148;SDS011;2088;51.032;7.082;2023-11-21T08:15:03;31.33;;;10.80;;
4148;SDS011;2088;51.032;7.082;2023-11-21T08:17:31;23.97;;;7.67;;
4148;SDS011;2088;51.032;7.082;2023-11-21T08:19:58;40.60;;;10.27;;
4148;SDS011;2088;51.032;7.082;2023-11-21T08:22:25;24.63;;;9.77;;
4148;SDS011;2088;51.032;7.082;2023-11-21T08:24:53;24.00;;;11.07;;
4148;SDS011;2088;51.032;7.082;2023-11-21T08:27:21;29.13;;;9.70;;
4148;SDS011;2088;51.032;7.082;2023-11-21T08:29:48;35.50;;;11.33;;
4148;SDS011;2088;51.032;7.082;2023-11-21T08:32:15;33.63;;;10.80;;
4148;SDS011;2088;51.032;7.082;2023-11-21T08:34:42;29.37;;;8.70;;
4148;SDS011;2088;51.032;7.082;2023-11-21T08:37:10;43.93;;;10.93;;
4148;SDS011;2088;51.032;7.082;2023-11-21T08:39:37;50.20;;;10.70;;
4148;SDS011;2088;51.032;7.082;2023-11-21T08:42:08;31.47;;;10.23;;
4148;SDS011;2088;51.032;7.082;2023-11-21T08:44:35;32.27;;;9.57;;
4148;SDS011;2088;51.032;7.082;2023-11-21T08:47:03;32.13;;;10.37;;
4148;SDS011;2088;51.032;7.082;2023-11-21T08:49:31;44.53;;;10.30;;
4148;SDS011;2088;51.032;7.082;2023-11-21T08:51:58;36.17;;;11.60;;
4148;SDS011;2088;51.032;7.082;2023-11-21T08:54:25;48.73;;;13.20;;
4148;SDS011;2088;51.032;7.082;2023-11-21T08:56:52;34.23;;;11.73;;
4148;SDS011;2088;51.032;7.082;2023-11-21T08:59:21;40.43;;;12.97;;
4148;SDS011;2088;51.032;7.082;2023-11-21T09:01:49;41.10;;;10.77;;
4148;SDS011;2088;51.032;7.082;2023-11-21T09:04:16;31.80;;;12.33;;
4148;SDS011;2088;51.032;7.082;2023-11-21T09:06:43;46.67;;;11.03;;
4148;SDS011;2088;51.032;7.082;2023-11-21T09:09:10;38.97;;;10.97;;
4148;SDS011;2088;51.032;7.082;2023-11-21T09:11:37;40.60;;;12.40;;
4148;SDS011;2088;51.032;7.082;2023-11-21T09:14:04;31.63;;;10.77;;
4148;SDS011;2088;51.032;7.082;2023-11-21T09:16:32;30.93;;;12.20;;
4148;SDS011;2088;51.032;7.082;2023-11-21T09:19:00;57.37;;;12.20;;
4148;SDS011;2088;51.032;7.082;2023-11-21T09:21:28;45.73;;;11.00;;
4148;SDS011;2088;51.032;7.082;2023-11-21T09:23:55;43.20;;;15.67;;
4148;SDS011;2088;51.032;7.082;2023-11-21T09:26:23;41.67;;;12.10;;
4148;SDS011;2088;51.032;7.082;2023-11-21T09:28:50;37.97;;;11.23;;
4148;SDS011;2088;51.032;7.082;2023-11-21T09:31:17;38.07;;;12.97;;
4148;SDS011;2088;51.032;7.082;2023-11-21T09:33:49;37.60;;;11.20;;
4148;SDS011;2088;51.032;7.082;2023-11-21T09:36:16;35.03;;;11.83;;
4148;SDS011;2088;51.032;7.082;2023-11-21T09:38:43;35.20;;;10.87;;
4148;SDS011;2088;51.032;7.082;2023-11-21T09:41:11;41.00;;;11.70;;
4148;SDS011;2088;51.032;7.082;2023-11-21T09:43:43;46.10;;;11.73;;
4148;SDS011;2088;51.032;7.082;2023-11-21T09:46:11;37.10;;;11.57;;
4148;SDS011;2088;51.032;7.082;2023-11-21T09:48:44;34.23;;;11.07;;
4148;SDS011;2088;51.032;7.082;2023-11-21T09:51:13;34.17;;;9.97;;
4148;SDS011;2088;51.032;7.082;2023-11-21T09:53:41;33.47;;;12.00;;
4148;SDS011;2088;51.032;7.082;2023-11-21T09:56:10;39.53;;;12.10;;
4148;SDS011;2088;51.032;7.082;2023-11-21T09:58:37;34.37;;;11.70;;
4148;SDS011;2088;51.032;7.082;2023-11-21T10:01:04;33.40;;;11.50;;
4148;SDS011;2088;51.032;7.082;2023-11-21T10:03:34;30.33;;;10.20;;
4148;SDS011;2088;51.032;7.082;2023-11-21T10:06:04;51.80;;;11.10;;
4148;SDS011;2088;51.032;7.082;2023-11-21T10:08:33;42.93;;;14.10;;
4148;SDS011;2088;51.032;7.082;2023-11-21T10:11:01;31.23;;;11.53;;
4148;SDS011;2088;51.032;7.082;2023-11-21T10:13:31;48.47;;;12.57;;
4148;SDS011;2088;51.032;7.082;2023-11-21T10:16:00;37.10;;;12.10;;
4148;SDS011;2088;51.032;7.082;2023-11-21T10:18:30;52.07;;;15.13;;
4148;SDS011;2088;51.032;7.082;2023-11-21T10:20:59;27.60;;;12.00;;
4148;SDS011;2088;51.032;7.082;2023-11-21T10:23:28;41.83;;;11.93;;
4148;SDS011;2088;51.032;7.082;2023-11-21T10:25:57;48.40;;;13.83;;
4148;SDS011;2088;51.032;7.082;2023-11-21T10:28:25;38.73;;;13.27;;
4148;SDS011;2088;51.032;7.082;2023-11-21T10:30:52;41.27;;;14.80;;
4148;SDS011;2088;51.032;7.082;2023-11-21T10:33:20;37.80;;;13.53;;
4148;SDS011;2088;51.032;7.082;2023-11-21T10:35:53;45.07;;;13.63;;
4148;SDS011;2088;51.032;7.082;2023-11-21T10:38:20;46.03;;;13.90;;
4148;SDS011;2088;51.032;7.082;2023-11-21T10:40:49;42.13;;;13.00;;
4148;SDS011;2088;51.032;7.082;2023-11-21T10:43:17;36.20;;;13.90;;
4148;SDS011;2088;51.032;7.082;2023-11-21T10:45:45;42.97;;;15.73;;
4148;SDS011;2088;51.032;7.082;2023-11-21T10:48:12;32.83;;;11.20;;
4148;SDS011;2088;51.032;7.082;2023-11-21T10:50:42;33.10;;;13.47;;
4148;SDS011;2088;51.032;7.082;2023-11-21T10:53:09;39.40;;;15.20;;
4148;SDS011;2088;51.032;7.082;2023-11-21T10:55:37;38.47;;;12.93;;
4148;SDS011;2088;51.032;7.082;2023-11-21T10:58:05;53.33;;;14.37;;
4148;SDS011;2088;51.032;7.082;2023-11-21T11:00:33;36.17;;;11.60;;
4148;SDS011;2088;51.032;7.082;2023-11-21T11:03:00;38.30;;;11.47;;
4148;SDS011;2088;51.032;7.082;2023-11-21T11:05:29;39.40;;;13.00;;
4148;SDS011;2088;51.032;7.082;2023-11-21T11:07:58;32.00;;;11.00;;
4148;SDS011;2088;51.032;7.082;2023-11-21T11:10:28;36.40;;;10.67;;
4148;SDS011;2088;51.032;7.082;2023-11-21T11:12:55;29.47;;;11.43;;
4148;SDS011;2088;51.032;7.082;2023-11-21T11:15:23;37.57;;;12.00;;
4148;SDS011;2088;51.032;7.082;2023-11-21T11:17:52;50.07;;;12.33;;
4148;SDS011;2088;51.032;7.082;2023-11-21T11:20:22;32.70;;;13.17;;
4148;SDS011;2088;51.032;7.082;2023-11-21T11:22:50;39.53;;;12.43;;
4148;SDS011;2088;51.032;7.082;2023-11-21T11:25:25;29.70;;;11.10;;
4148;SDS011;2088;51.032;7.082;2023-11-21T11:27:54;36.83;;;13.00;;
4148;SDS011;2088;51.032;7.082;2023-11-21T11:30:26;38.00;;;12.60;;
4148;SDS011;2088;51.032;7.082;2023-11-21T11:32:58;27.60;;;10.97;;
4148;SDS011;2088;51.032;7.082;2023-11-21T11:35:33;45.17;;;13.53;;
4148;SDS011;2088;51.032;7.082;2023-11-21T11:38:01;35.90;;;14.37;;
4148;SDS011;2088;51.032;7.082;2023-11-21T11:40:38;29.87;;;12.60;;
4148;SDS011;2088;51.032;7.082;2023-11-21T11:43:06;39.53;;;12.10;;
4148;SDS011;2088;51.032;7.082;2023-11-21T11:45:33;47.00;;;11.30;;
4148;SDS011;2088;51.032;7.082;2023-11-21T11:48:05;34.97;;;10.33;;
4148;SDS011;2088;51.032;7.082;2023-11-21T11:50:32;33.00;;;11.70;;
4148;SDS011;2088;51.032;7.082;2023-11-21T11:53:11;36.97;;;13.20;;
4148;SDS011;2088;51.032;7.082;2023-11-21T11:55:39;32.43;;;11.27;;
4148;SDS011;2088;51.032;7.082;2023-11-21T11:58:06;35.77;;;13.10;;
4148;SDS011;2088;51.032;7.082;2023-11-21T12:00:34;46.37;;;12.93;;
4148;SDS011;2088;51.032;7.082;2023-11-21T12:03:07;33.33;;;12.43;;
4148;SDS011;2088;51.032;7.082;2023-11-21T12:05:34;31.20;;;11.00;;
4148;SDS011;2088;51.032;7.082;2023-11-21T12:08:04;30.73;;;12.20;;
4148;SDS011;2088;51.032;7.082;2023-11-21T12:10:31;36.70;;;13.13;;
4148;SDS011;2088;51.032;7.082;2023-11-21T12:12:59;30.63;;;12.87;;
4148;SDS011;2088;51.032;7.082;2023-11-21T12:15:27;42.50;;;13.53;;
4148;SDS011;2088;51.032;7.082;2023-11-21T12:17:56;49.17;;;11.73;;
4148;SDS011;2088;51.032;7.082;2023-11-21T12:20:25;42.10;;;12.90;;
4148;SDS011;2088;51.032;7.082;2023-11-21T12:22:53;43.77;;;12.07;;
4148;SDS011;2088;51.032;7.082;2023-11-21T12:25:20;37.63;;;12.17;;
4148;SDS011;2088;51.032;7.082;2023-11-21T12:27:48;44.20;;;13.33;;
4148;SDS011;2088;51.032;7.082;2023-11-21T12:30:16;41.57;;;13.90;;
4148;SDS011;2088;51.032;7.082;2023-11-21T12:32:44;36.30;;;11.80;;
4148;SDS011;2088;51.032;7.082;2023-11-21T12:35:12;39.93;;;12.70;;
4148;SDS011;2088;51.032;7.082;2023-11-21T12:37:41;35.07;;;11.30;;
4148;SDS011;2088;51.032;7.082;2023-11-21T12:40:09;36.63;;;13.07;;
4148;SDS011;2088;51.032;7.082;2023-11-21T12:42:37;37.77;;;13.50;;
4148;SDS011;2088;51.032;7.082;2023-11-21T12:45:07;51.87;;;13.37;;
4148;SDS011;2088;51.032;7.082;2023-11-21T12:47:39;44.73;;;13.00;;
4148;SDS011;2088;51.032;7.082;2023-11-21T12:50:06;58.57;;;12.67;;
4148;SDS011;2088;51.032;7.082;2023-11-21T12:52:40;50.90;;;13.87;;
4148;SDS011;2088;51.032;7.082;2023-11-21T12:55:09;32.30;;;11.73;;
4148;SDS011;2088;51.032;7.082;2023-11-21T12:57:40;48.27;;;14.23;;
4148;SDS011;2088;51.032;7.082;2023-11-21T13:00:08;30.90;;;11.60;;
4148;SDS011;2088;51.032;7.082;2023-11-21T13:02:40;27.00;;;11.37;;
4148;SDS011;2088;51.032;7.082;2023-11-21T13:05:08;32.13;;;10.40;;
4148;SDS011;2088;51.032;7.082;2023-11-21T13:07:44;35.00;;;10.30;;
4148;SDS011;2088;51.032;7.082;2023-11-21T13:10:12;36.00;;;12.17;;
4148;SDS011;2088;51.032;7.082;2023-11-21T13:12:42;31.73;;;10.27;;
4148;SDS011;2088;51.032;7.082;2023-11-21T13:15:13;30.70;;;10.03;;
4148;SDS011;2088;51.032;7.082;2023-11-21T13:17:41;31.03;;;9.20;;
4148;SDS011;2088;51.032;7.082;2023-11-21T13:20:09;27.27;;;9.33;;
4148;SDS011;2088;51.032;7.082;2023-11-21T13:22:45;27.70;;;9.83;;
4148;SDS011;2088;51.032;7.082;2023-11-21T13:25:13;26.80;;;10.43;;
4148;SDS011;2088;51.032;7.082;2023-11-21T13:27:42;25.57;;;8.37;;
4148;SDS011;2088;51.032;7.082;2023-11-21T13:30:10;31.10;;;9.43;;
4148;SDS011;2088;51.032;7.082;2023-11-21T13:32:40;16.40;;;6.97;;
4148;SDS011;2088;51.032;7.082;2023-11-21T13:35:07;32.97;;;8.30;;
4148;SDS011;2088;51.032;7.082;2023-11-21T13:37:40;29.60;;;9.20;;
4148;SDS011;2088;51.032;7.082;2023-11-21T13:40:12;25.40;;;7.60;;
4148;SDS011;2088;51.032;7.082;2023-11-21T13:42:42;19.37;;;7.20;;
4148;SDS011;2088;51.032;7.082;2023-11-21T13:45:09;21.73;;;9.30;;
4148;SDS011;2088;51.032;7.082;2023-11-21T13:47:37;33.00;;;9.00;;
4148;SDS011;2088;51.032;7.082;2023-11-21T13:50:05;25.30;;;10.87;;
4148;SDS011;2088;51.032;7.082;2023-11-21T13:52:41;22.33;;;8.23;;
4148;SDS011;2088;51.032;7.082;2023-11-21T13:55:10;29.50;;;8.73;;
4148;SDS011;2088;51.032;7.082;2023-11-21T13:57:42;35.17;;;12.03;;
4148;SDS011;2088;51.032;7.082;2023-11-21T14:00:14;32.80;;;9.10;;
4148;SDS011;2088;51.032;7.082;2023-11-21T14:03:01;27.53;;;8.00;;
4148;SDS011;2088;51.032;7.082;2023-11-21T14:05:33;31.80;;;8.67;;
4148;SDS011;2088;51.032;7.082;2023-11-21T14:08:00;29.90;;;9.73;;
4148;SDS011;2088;51.032;7.082;2023-11-21T14:10:29;29.43;;;9.87;;
4148;SDS011;2088;51.032;7.082;2023-11-21T14:13:06;33.53;;;9.97;;
4148;SDS011;2088;51.032;7.082;2023-11-21T14:15:35;36.80;;;9.83;;
4148;SDS011;2088;51.032;7.082;2023-11-21T14:18:06;28.50;;;9.67;;
4148;SDS011;2088;51.032;7.082;2023-11-21T14:20:35;28.30;;;9.27;;
4148;SDS011;2088;51.032;7.082;2023-11-21T14:23:03;34.50;;;10.10;;
4148;SDS011;2088;51.032;7.082;2023-11-21T14:25:31;27.40;;;8.77;;
4148;SDS011;2088;51.032;7.082;2023-11-21T14:27:58;29.90;;;10.47;;
4148;SDS011;2088;51.032;7.082;2023-11-21T14:30:26;35.20;;;10.20;;
4148;SDS011;2088;51.032;7.082;2023-11-21T14:32:55;41.97;;;11.50;;
4148;SDS011;2088;51.032;7.082;2023-11-21T14:35:22;28.77;;;9.53;;
4148;SDS011;2088;51.032;7.082;2023-11-21T14:37:49;22.63;;;9.97;;
4148;SDS011;2088;51.032;7.082;2023-11-21T14:40:16;35.60;;;9.77;;
4148;SDS011;2088;51.032;7.082;2023-11-21T14:42:46;35.27;;;9.77;;
4148;SDS011;2088;51.032;7.082;2023-11-21T14:45:13;31.13;;;10.53;;
4148;SDS011;2088;51.032;7.082;2023-11-21T14:47:46;41.87;;;11.47;;
4148;SDS011;2088;51.032;7.082;2023-11-21T14:50:21;28.97;;;9.80;;
4148;SDS011;2088;51.032;7.082;2023-11-21T14:53:05;38.77;;;11.83;;
4148;SDS011;2088;51.032;7.082;2023-11-21T14:55:33;34.07;;;10.67;;
4148;SDS011;2088;51.032;7.082;2023-11-21T14:58:15;30.23;;;10.13;;
4148;SDS011;2088;51.032;7.082;2023-11-21T15:00:51;34.77;;;10.80;;
4148;SDS011;2088;51.032;7.082;2023-11-21T15:03:24;35.83;;;10.97;;
4148;SDS011;2088;51.032;7.082;2023-11-21T15:06:08;37.50;;;10.67;;